createdAt,value
2018-03-25T00:01:43.718Z,23.77
2018-03-25T00:04:11.857Z,24.90
2018-03-25T00:06:39.962Z,24.33
2018-03-25T00:09:08.100Z,24.97
2018-03-25T00:11:36.206Z,23.80
2018-03-25T00:14:04.348Z,25.27
2018-03-25T00:16:32.468Z,25.40
2018-03-25T00:19:00.605Z,25.20
2018-03-25T00:21:28.712Z,25.57
2018-03-25T00:23:56.840Z,25.37
2018-03-25T00:26:24.955Z,24.90
2018-03-25T00:28:53.071Z,25.10
2018-03-25T00:31:21.945Z,24.27
2018-03-25T00:33:50.077Z,25.43
2018-03-25T00:36:18.191Z,24.87
2018-03-25T00:38:46.319Z,25.10
2018-03-25T00:41:14.418Z,25.03
2018-03-25T00:43:42.552Z,24.00
2018-03-25T00:46:10.733Z,25.40
2018-03-25T00:48:38.835Z,25.60
2018-03-25T00:51:06.941Z,25.07
2018-03-25T00:53:35.840Z,23.80
2018-03-25T00:56:04.716Z,26.13
2018-03-25T00:58:32.873Z,25.60
2018-03-25T01:01:00.983Z,24.40
2018-03-25T01:03:29.106Z,24.40
2018-03-25T01:05:57.236Z,25.10
2018-03-25T01:08:25.356Z,26.20
2018-03-25T01:10:53.473Z,24.03
2018-03-25T01:13:22.372Z,24.97
2018-03-25T01:16:02.132Z,23.30
2018-03-25T01:18:30.256Z,25.00
2018-03-25T01:20:58.359Z,23.70
2018-03-25T01:23:26.490Z,23.93
2018-03-25T01:25:54.604Z,26.27
2018-03-25T01:28:22.732Z,24.23
2018-03-25T01:30:50.844Z,27.63
2018-03-25T01:33:19.741Z,25.83
2018-03-25T01:35:47.855Z,25.17
2018-03-25T01:38:15.978Z,25.03
2018-03-25T01:40:44.853Z,25.47
2018-03-25T01:43:12.976Z,26.47
2018-03-25T01:45:41.074Z,24.83
2018-03-25T01:48:09.214Z,22.30
2018-03-25T01:50:37.316Z,24.70
2018-03-25T01:53:05.440Z,24.53
2018-03-25T01:55:33.553Z,24.47
2018-03-25T01:58:01.654Z,25.57
2018-03-25T02:00:29.779Z,24.23
2018-03-25T02:02:57.889Z,23.47
2018-03-25T02:05:26.014Z,25.40
2018-03-25T02:07:54.118Z,26.07
2018-03-25T02:10:22.253Z,25.50
2018-03-25T02:12:50.371Z,25.60
2018-03-25T02:15:18.507Z,25.20
2018-03-25T02:17:46.618Z,23.40
2018-03-25T02:20:14.755Z,23.77
2018-03-25T02:22:42.883Z,26.03
2018-03-25T02:25:11.004Z,23.80
2018-03-25T02:27:39.134Z,25.37
2018-03-25T02:30:07.247Z,24.43
2018-03-25T02:32:35.354Z,25.40
2018-03-25T02:35:03.502Z,23.57
2018-03-25T02:37:31.605Z,23.63
2018-03-25T02:39:59.744Z,25.30
2018-03-25T02:42:27.848Z,22.20
2018-03-25T02:44:56.620Z,25.60
2018-03-25T02:47:24.728Z,23.83
2018-03-25T02:49:52.895Z,25.30
2018-03-25T02:52:21.013Z,23.93
2018-03-25T02:54:49.165Z,25.70
2018-03-25T02:57:18.053Z,25.53
2018-03-25T02:59:46.180Z,25.70
2018-03-25T03:02:14.291Z,28.20
2018-03-25T03:04:42.429Z,26.50
2018-03-25T03:07:10.537Z,26.10
2018-03-25T03:09:38.667Z,27.20
2018-03-25T03:12:06.770Z,28.07
2018-03-25T03:14:34.895Z,27.63
2018-03-25T03:17:03.006Z,25.57
2018-03-25T03:19:31.139Z,25.60
2018-03-25T03:21:59.246Z,25.13
2018-03-25T03:24:27.363Z,24.97
2018-03-25T03:26:56.226Z,24.27
2018-03-25T03:29:24.361Z,23.10
2018-03-25T03:31:52.467Z,23.20
2018-03-25T03:34:20.602Z,26.00
2018-03-25T03:36:48.718Z,25.70
2018-03-25T03:39:16.843Z,24.17
2018-03-25T03:41:44.949Z,23.97
2018-03-25T03:44:13.075Z,22.93
2018-03-25T03:46:41.198Z,23.73
2018-03-25T03:49:09.324Z,22.57
2018-03-25T03:51:37.452Z,23.70
2018-03-25T03:54:05.579Z,24.20
2018-03-25T03:56:33.724Z,23.47
2018-03-25T03:59:02.795Z,23.30
2018-03-25T04:01:30.916Z,22.43
2018-03-25T04:03:59.043Z,22.60
2018-03-25T04:06:27.143Z,25.27
2018-03-25T04:08:56.035Z,24.80
2018-03-25T04:11:24.903Z,26.23
2018-03-25T04:13:53.050Z,24.37
2018-03-25T04:16:21.172Z,24.70
2018-03-25T04:18:50.067Z,24.00
2018-03-25T04:21:18.183Z,26.80
2018-03-25T04:23:46.319Z,23.70
2018-03-25T04:26:14.456Z,23.20
2018-03-25T04:28:42.554Z,24.37
2018-03-25T04:31:11.456Z,23.60
2018-03-25T04:33:39.576Z,23.83
2018-03-25T04:36:07.710Z,22.27
2018-03-25T04:38:35.819Z,25.00
2018-03-25T04:41:03.948Z,26.00
2018-03-25T04:43:32.050Z,24.30
2018-03-25T04:46:00.187Z,24.90
2018-03-25T04:48:28.296Z,24.10
2018-03-25T04:50:56.449Z,22.27
2018-03-25T04:53:24.544Z,24.70
2018-03-25T04:55:52.674Z,22.17
2018-03-25T04:58:20.806Z,22.90
2018-03-25T05:00:48.932Z,23.97
2018-03-25T05:03:17.035Z,24.63
2018-03-25T05:05:45.172Z,22.80
2018-03-25T05:08:13.270Z,25.70
2018-03-25T05:10:41.405Z,24.93
2018-03-25T05:13:10.277Z,24.17
2018-03-25T05:15:38.402Z,23.90
2018-03-25T05:18:06.514Z,25.73
2018-03-25T05:20:34.657Z,25.30
2018-03-25T05:23:02.765Z,23.20
2018-03-25T05:25:30.899Z,25.40
2018-03-25T05:27:59.045Z,23.93
2018-03-25T05:30:27.134Z,25.03
2018-03-25T05:32:55.250Z,24.93
2018-03-25T05:35:23.376Z,24.30
2018-03-25T05:37:51.501Z,25.43
2018-03-25T05:40:19.741Z,26.93
2018-03-25T05:42:47.844Z,26.07
2018-03-25T05:45:15.975Z,24.50
2018-03-25T05:47:44.087Z,24.77
2018-03-25T05:50:12.220Z,28.10
2018-03-25T05:52:40.320Z,26.70
2018-03-25T05:55:08.450Z,26.50
2018-03-25T05:57:36.568Z,25.70
2018-03-25T06:00:05.805Z,24.63
2018-03-25T06:02:34.687Z,26.10
2018-03-25T06:05:02.910Z,24.80
2018-03-25T06:07:31.025Z,25.40
2018-03-25T06:09:59.152Z,25.60
2018-03-25T06:12:27.256Z,23.63
2018-03-25T06:14:55.383Z,24.80
2018-03-25T06:17:23.500Z,24.83
2018-03-25T06:19:51.623Z,22.50
2018-03-25T06:22:20.507Z,22.23
2018-03-25T06:24:49.392Z,25.73
2018-03-25T06:27:18.278Z,23.97
2018-03-25T06:29:46.400Z,26.57
2018-03-25T06:32:14.519Z,24.23
2018-03-25T06:34:42.660Z,27.03
2018-03-25T06:37:10.774Z,28.13
2018-03-25T06:39:38.939Z,31.07
2018-03-25T06:42:07.039Z,31.60
2018-03-25T06:44:35.178Z,29.40
2018-03-25T06:47:03.274Z,29.47
2018-03-25T06:49:32.179Z,29.33
2018-03-25T06:52:00.306Z,29.53
2018-03-25T06:54:28.404Z,28.67
2018-03-25T06:56:57.293Z,28.07
2018-03-25T06:59:25.390Z,29.30
2018-03-25T07:01:53.533Z,30.80
2018-03-25T07:04:21.644Z,29.27
2018-03-25T07:06:49.776Z,29.23
2018-03-25T07:09:17.883Z,30.50
2018-03-25T07:11:46.009Z,29.43
2018-03-25T07:14:14.108Z,30.17
2018-03-25T07:16:43.007Z,32.03
2018-03-25T07:19:12.676Z,31.33
2018-03-25T07:21:40.817Z,30.27
2018-03-25T07:24:08.945Z,30.40
2018-03-25T07:26:37.119Z,32.43
2018-03-25T07:29:05.823Z,31.87
2018-03-25T07:31:34.005Z,30.03
2018-03-25T07:34:02.882Z,30.53
2018-03-25T07:36:31.202Z,31.43
2018-03-25T07:38:59.342Z,31.00
2018-03-25T07:41:28.236Z,30.60
2018-03-25T07:43:57.221Z,30.37
2018-03-25T07:46:26.129Z,32.13
2018-03-25T07:48:55.408Z,31.20
2018-03-25T07:51:24.312Z,29.60
2018-03-25T07:53:53.219Z,31.23
2018-03-25T07:56:21.346Z,31.43
2018-03-25T07:58:49.471Z,31.90
2018-03-25T08:01:17.605Z,31.43
2018-03-25T08:03:45.720Z,29.90
2018-03-25T08:06:13.856Z,29.60
2018-03-25T08:08:42.034Z,30.70
2018-03-25T08:11:10.183Z,31.87
2018-03-25T08:13:38.296Z,30.83
2018-03-25T08:16:07.791Z,31.33
2018-03-25T08:18:35.874Z,29.50
2018-03-25T08:21:04.020Z,30.03
2018-03-25T08:23:32.127Z,33.20
2018-03-25T08:26:00.264Z,32.10
2018-03-25T08:28:28.472Z,30.00
2018-03-25T08:30:56.609Z,31.03
2018-03-25T08:33:24.732Z,32.10
2018-03-25T08:35:52.874Z,31.20
2018-03-25T08:38:21.761Z,30.20
2018-03-25T08:40:50.664Z,31.00
2018-03-25T08:43:19.543Z,29.77
2018-03-25T08:45:48.457Z,32.03
2018-03-25T08:48:16.564Z,31.37
2018-03-25T08:50:44.857Z,29.27
2018-03-25T08:53:12.979Z,31.53
2018-03-25T08:55:41.125Z,30.47
2018-03-25T08:58:09.231Z,30.80
2018-03-25T09:00:37.372Z,31.07
2018-03-25T09:03:05.489Z,30.57
2018-03-25T09:05:33.612Z,30.57
2018-03-25T09:08:01.765Z,30.57
2018-03-25T09:10:29.927Z,30.73
2018-03-25T09:12:58.077Z,31.17
2018-03-25T09:15:26.486Z,31.70
2018-03-25T09:17:55.745Z,33.00
2018-03-25T09:20:24.046Z,33.17
2018-03-25T09:22:52.184Z,31.03
2018-03-25T09:25:21.058Z,32.17
2018-03-25T09:27:49.188Z,33.33
2018-03-25T09:30:17.304Z,32.20
2018-03-25T09:32:45.438Z,31.20
2018-03-25T09:35:13.556Z,32.33
2018-03-25T09:37:42.455Z,31.17
2018-03-25T09:40:16.068Z,32.13
2018-03-25T09:42:45.754Z,30.43
2018-03-25T09:45:14.627Z,30.90
2018-03-25T09:47:42.789Z,30.57
2018-03-25T09:50:11.303Z,31.70
2018-03-25T09:52:40.231Z,31.40
2018-03-25T09:55:08.348Z,31.37
2018-03-25T09:57:36.491Z,30.90
2018-03-25T10:00:05.001Z,30.40
2018-03-25T10:02:40.426Z,29.90
2018-03-25T10:05:08.542Z,30.87
2018-03-25T10:07:37.439Z,30.17
2018-03-25T10:10:06.399Z,27.50
2018-03-25T10:12:34.543Z,26.77
2018-03-25T10:15:02.659Z,27.17
2018-03-25T10:17:30.800Z,23.73
2018-03-25T10:19:58.912Z,26.57
2018-03-25T10:22:27.056Z,26.87
2018-03-25T10:24:55.195Z,22.83
2018-03-25T10:27:24.098Z,24.10
2018-03-25T10:29:52.249Z,24.23
2018-03-25T10:32:20.379Z,23.07
2018-03-25T10:34:48.500Z,23.50
2018-03-25T10:37:16.625Z,22.57
2018-03-25T10:39:44.744Z,23.37
2018-03-25T10:42:12.884Z,25.43
2018-03-25T10:44:40.988Z,23.70
2018-03-25T10:47:11.478Z,23.30
2018-03-25T10:49:39.599Z,22.47
2018-03-25T10:52:07.744Z,21.67
2018-03-25T10:54:36.644Z,21.53
2018-03-25T10:57:05.514Z,22.13
2018-03-25T10:59:33.651Z,22.00
2018-03-25T11:02:01.774Z,36.00
2018-03-25T11:04:30.679Z,37.67
2018-03-25T11:06:58.791Z,26.33
2018-03-25T11:09:26.926Z,31.40
2018-03-25T11:11:55.183Z,28.67
2018-03-25T11:14:23.292Z,30.47
2018-03-25T11:16:51.416Z,34.07
2018-03-25T11:19:19.555Z,23.33
2018-03-25T11:21:47.677Z,24.37
2018-03-25T11:24:16.584Z,23.33
2018-03-25T11:26:45.460Z,22.10
2018-03-25T11:29:14.395Z,23.67
2018-03-25T11:31:42.495Z,23.43
2018-03-25T11:34:10.637Z,23.73
2018-03-25T11:36:38.746Z,23.20
2018-03-25T11:39:06.896Z,23.57
2018-03-25T11:41:34.999Z,28.53
2018-03-25T11:44:03.242Z,22.20
2018-03-25T11:46:31.350Z,21.40
2018-03-25T11:48:59.494Z,22.30
2018-03-25T11:51:27.606Z,22.80
2018-03-25T11:53:56.525Z,21.70
2018-03-25T11:56:24.645Z,20.33
2018-03-25T11:58:52.781Z,22.23
2018-03-25T12:01:20.903Z,21.03
2018-03-25T12:03:49.050Z,20.87
2018-03-25T12:06:17.174Z,21.43
2018-03-25T12:08:46.075Z,20.63
2018-03-25T12:11:14.999Z,20.93
2018-03-25T12:13:43.187Z,22.00
2018-03-25T12:16:11.298Z,21.90
2018-03-25T12:18:40.200Z,22.07
2018-03-25T12:21:09.110Z,23.10
2018-03-25T12:23:37.235Z,22.10
2018-03-25T12:26:05.343Z,20.50
2018-03-25T12:28:33.480Z,21.50
2018-03-25T12:31:01.591Z,21.03
2018-03-25T12:33:30.483Z,22.80
2018-03-25T12:35:59.399Z,21.40
2018-03-25T12:38:27.543Z,20.57
2018-03-25T12:40:56.411Z,21.60
2018-03-25T12:43:24.550Z,21.27
2018-03-25T12:45:52.669Z,20.70
2018-03-25T12:48:21.576Z,20.77
2018-03-25T12:50:49.698Z,20.60
2018-03-25T12:53:17.826Z,21.30
2018-03-25T12:55:45.948Z,19.87
2018-03-25T12:58:14.089Z,21.10
2018-03-25T13:00:42.192Z,20.80
2018-03-25T13:03:10.332Z,20.53
2018-03-25T13:05:38.441Z,18.47
2018-03-25T13:08:06.555Z,18.50
2018-03-25T13:10:35.514Z,19.20
2018-03-25T13:13:03.592Z,18.93
2018-03-25T13:15:31.724Z,19.20
2018-03-25T13:17:59.835Z,19.70
2018-03-25T13:20:28.399Z,18.87
2018-03-25T13:22:56.520Z,18.17
2018-03-25T13:25:25.411Z,20.93
2018-03-25T13:27:54.296Z,21.83
2018-03-25T13:30:23.194Z,23.53
2018-03-25T13:32:52.076Z,23.50
2018-03-25T13:35:20.989Z,22.63
2018-03-25T13:37:49.111Z,23.60
2018-03-25T13:40:17.245Z,22.33
2018-03-25T13:42:45.355Z,23.80
2018-03-25T13:45:13.491Z,21.40
2018-03-25T13:47:41.604Z,22.33
2018-03-25T13:50:09.744Z,22.53
2018-03-25T13:52:37.847Z,22.80
2018-03-25T13:55:05.977Z,21.57
2018-03-25T13:57:34.093Z,23.93
2018-03-25T14:00:03.015Z,23.90
2018-03-25T14:02:34.911Z,22.67
2018-03-25T14:05:03.043Z,23.13
2018-03-25T14:07:31.158Z,23.90
2018-03-25T14:09:59.296Z,23.03
2018-03-25T14:12:27.408Z,24.33
2018-03-25T14:14:55.534Z,23.10
2018-03-25T14:17:23.643Z,22.97
2018-03-25T14:19:51.771Z,22.57
2018-03-25T14:22:20.663Z,22.90
2018-03-25T14:24:49.568Z,21.47
2018-03-25T14:27:17.679Z,22.30
2018-03-25T14:29:45.816Z,23.30
2018-03-25T14:32:13.927Z,21.90
2018-03-25T14:34:42.056Z,23.90
2018-03-25T14:37:10.173Z,23.00
2018-03-25T14:39:39.036Z,23.40
2018-03-25T14:42:07.157Z,21.53
2018-03-25T14:44:35.295Z,23.80
2018-03-25T14:47:03.476Z,22.60
2018-03-25T14:49:31.616Z,23.50
2018-03-25T14:51:59.722Z,23.90
2018-03-25T14:54:27.868Z,23.27
2018-03-25T14:56:55.975Z,25.47
2018-03-25T14:59:24.116Z,24.50
2018-03-25T15:01:52.259Z,25.63
2018-03-25T15:04:20.370Z,25.93
2018-03-25T15:06:48.476Z,27.63
2018-03-25T15:09:16.640Z,25.60
2018-03-25T15:11:44.752Z,26.30
2018-03-25T15:14:13.658Z,25.07
2018-03-25T15:16:42.537Z,26.03
2018-03-25T15:19:11.452Z,24.57
2018-03-25T15:21:39.562Z,25.30
2018-03-25T15:24:07.692Z,25.97
2018-03-25T15:26:35.808Z,25.30
2018-03-25T15:29:03.921Z,26.63
2018-03-25T15:31:32.828Z,24.53
2018-03-25T15:34:00.949Z,25.30
2018-03-25T15:36:29.084Z,24.93
2018-03-25T15:38:57.201Z,24.73
2018-03-25T15:41:25.334Z,24.97
2018-03-25T15:43:53.444Z,27.37
2018-03-25T15:46:21.596Z,25.10
2018-03-25T15:48:49.709Z,25.20
2018-03-25T15:51:17.860Z,25.43
2018-03-25T15:53:45.974Z,24.17
2018-03-25T15:56:14.887Z,24.73
2018-03-25T15:58:43.001Z,26.67
2018-03-25T16:01:11.153Z,25.63
2018-03-25T16:03:39.255Z,25.63
2018-03-25T16:06:07.405Z,25.63
2018-03-25T16:08:35.542Z,25.07
2018-03-25T16:11:04.469Z,26.03
2018-03-25T16:13:33.418Z,24.70
2018-03-25T16:16:02.470Z,23.50
2018-03-25T16:18:30.690Z,25.13
2018-03-25T16:20:59.594Z,24.93
2018-03-25T16:23:27.719Z,26.50
2018-03-25T16:25:55.864Z,26.13
2018-03-25T16:28:23.985Z,25.50
2018-03-25T16:30:52.183Z,26.57
2018-03-25T16:33:21.088Z,26.70
2018-03-25T16:35:49.220Z,25.30
2018-03-25T16:38:17.344Z,25.03
2018-03-25T16:40:45.497Z,25.40
2018-03-25T16:43:14.369Z,28.13
2018-03-25T16:45:42.509Z,26.57
2018-03-25T16:48:10.628Z,26.70
2018-03-25T16:50:42.182Z,26.43
2018-03-25T16:53:11.089Z,26.07
2018-03-25T16:55:40.019Z,26.17
2018-03-25T16:58:08.152Z,25.23
2018-03-25T17:00:37.184Z,26.20
2018-03-25T17:03:05.328Z,26.43
2018-03-25T17:05:33.492Z,24.67
2018-03-25T17:08:02.368Z,26.47
2018-03-25T17:10:30.536Z,23.93
2018-03-25T17:12:59.337Z,24.60
2018-03-25T17:15:27.462Z,25.00
2018-03-25T17:17:55.586Z,26.13
2018-03-25T17:20:23.728Z,24.67
2018-03-25T17:22:51.910Z,24.53
2018-03-25T17:25:20.064Z,25.40
2018-03-25T17:27:48.175Z,23.47
2018-03-25T17:30:16.319Z,25.30
2018-03-25T17:32:44.439Z,27.90
2018-03-25T17:35:12.618Z,27.13
2018-03-25T17:37:41.498Z,25.80
2018-03-25T17:40:09.647Z,26.93
2018-03-25T17:42:37.778Z,28.17
2018-03-25T17:45:05.930Z,26.40
2018-03-25T17:47:34.825Z,25.10
2018-03-25T17:50:03.203Z,26.03
2018-03-25T17:52:31.445Z,27.87
2018-03-25T17:55:00.213Z,26.33
2018-03-25T17:57:28.343Z,24.93
2018-03-25T17:59:57.317Z,28.57
2018-03-25T18:02:25.502Z,27.13
2018-03-25T18:04:54.400Z,25.33
2018-03-25T18:07:22.564Z,25.63
2018-03-25T18:09:50.686Z,25.67
2018-03-25T18:12:18.840Z,24.50
2018-03-25T18:14:46.980Z,24.10
2018-03-25T18:17:33.463Z,24.80
2018-03-25T18:19:43.271Z,24.30
2018-03-25T18:22:11.403Z,25.70
2018-03-25T18:24:39.525Z,24.30
2018-03-25T18:27:07.655Z,25.77
2018-03-25T18:29:35.768Z,24.40
2018-03-25T18:32:03.908Z,24.37
2018-03-25T18:34:32.792Z,22.90
2018-03-25T18:37:00.934Z,22.83
2018-03-25T18:39:29.062Z,30.20
2018-03-25T18:41:57.963Z,24.37
2018-03-25T18:44:26.296Z,26.30
2018-03-25T18:46:54.489Z,25.43
2018-03-25T18:49:23.369Z,27.90
2018-03-25T18:51:51.781Z,27.13
2018-03-25T18:54:20.677Z,24.40
2018-03-25T18:56:48.836Z,24.30
2018-03-25T18:59:17.717Z,23.17
2018-03-25T19:01:45.848Z,24.20
2018-03-25T19:04:13.952Z,22.73
2018-03-25T19:06:42.105Z,22.83
2018-03-25T19:09:10.210Z,25.50
2018-03-25T19:11:39.132Z,24.67
2018-03-25T19:14:07.239Z,26.33
2018-03-25T19:16:35.366Z,24.70
2018-03-25T19:19:03.480Z,26.80
2018-03-25T19:21:31.617Z,24.77
2018-03-25T19:23:59.724Z,23.57
2018-03-25T19:26:27.850Z,26.20
2018-03-25T19:28:56.723Z,26.00
2018-03-25T19:31:24.873Z,23.17
2018-03-25T19:33:52.985Z,24.50
2018-03-25T19:36:21.955Z,24.70
2018-03-25T19:38:50.052Z,24.53
2018-03-25T19:41:18.943Z,21.60
2018-03-25T19:43:47.143Z,22.67
2018-03-25T19:46:15.338Z,22.70
2018-03-25T19:48:43.512Z,22.60
2018-03-25T19:51:11.838Z,23.50
2018-03-25T19:53:40.496Z,22.57
2018-03-25T19:56:08.819Z,24.13
2018-03-25T19:58:36.945Z,22.17
2018-03-25T20:01:05.084Z,21.10
2018-03-25T20:03:33.217Z,22.10
2018-03-25T20:06:01.374Z,21.93
2018-03-25T20:08:29.728Z,23.90
2018-03-25T20:10:57.880Z,24.70
2018-03-25T20:13:26.771Z,24.17
2018-03-25T20:15:55.713Z,23.10
2018-03-25T20:18:23.823Z,22.27
2018-03-25T20:20:52.183Z,22.50
2018-03-25T20:23:20.531Z,23.20
2018-03-25T20:25:48.671Z,22.97
2018-03-25T20:28:17.572Z,23.60
2018-03-25T20:30:46.226Z,23.20
2018-03-25T20:33:14.566Z,24.17
2018-03-25T20:35:42.956Z,22.00
2018-03-25T20:38:11.392Z,23.97
2018-03-25T20:40:40.285Z,24.00
2018-03-25T20:43:09.450Z,25.20
2018-03-25T20:45:37.556Z,23.93
2018-03-25T20:48:05.817Z,26.00
2018-03-25T20:50:34.692Z,22.93
2018-03-25T20:53:04.665Z,24.27
2018-03-25T20:55:32.819Z,22.77
2018-03-25T20:58:00.991Z,24.20
2018-03-25T21:00:29.862Z,22.97
2018-03-25T21:02:58.756Z,24.30
2018-03-25T21:05:26.859Z,24.50
2018-03-25T21:07:55.008Z,23.63
2018-03-25T21:10:23.879Z,24.90
2018-03-25T21:12:52.029Z,25.33
2018-03-25T21:15:20.137Z,25.33
2018-03-25T21:17:48.278Z,23.67
2018-03-25T21:20:16.379Z,23.17
2018-03-25T21:22:44.512Z,24.53
2018-03-25T21:25:12.630Z,23.73
2018-03-25T21:27:40.764Z,23.83
2018-03-25T21:30:08.872Z,23.30
2018-03-25T21:32:37.004Z,22.00
2018-03-25T21:35:05.137Z,23.43
2018-03-25T21:37:34.042Z,24.60
2018-03-25T21:40:02.934Z,22.87
2018-03-25T21:42:31.819Z,22.47
2018-03-25T21:45:00.703Z,23.03
2018-03-25T21:47:28.830Z,22.30
2018-03-25T21:50:02.870Z,22.17
2018-03-25T21:52:31.029Z,24.10
2018-03-25T21:54:59.149Z,22.40
2018-03-25T21:57:27.284Z,21.63
2018-03-25T21:59:55.416Z,23.77
2018-03-25T22:02:23.544Z,23.30
2018-03-25T22:04:52.425Z,23.37
2018-03-25T22:07:20.542Z,22.77
2018-03-25T22:09:48.642Z,22.70
2018-03-25T22:12:16.779Z,26.93
2018-03-25T22:14:44.896Z,24.40
2018-03-25T22:17:13.024Z,21.00
2018-03-25T22:19:41.139Z,22.07
2018-03-25T22:22:09.283Z,23.00
2018-03-25T22:24:37.414Z,23.10
2018-03-25T22:27:05.593Z,24.43
2018-03-25T22:29:34.466Z,23.70
2018-03-25T22:32:02.609Z,22.53
2018-03-25T22:34:30.722Z,21.47
2018-03-25T22:36:58.860Z,19.50
2018-03-25T22:39:27.878Z,21.77
2018-03-25T22:41:56.008Z,22.10
2018-03-25T22:44:24.149Z,21.47
2018-03-25T22:46:53.043Z,20.27
2018-03-25T22:49:21.926Z,21.30
2018-03-25T22:51:50.056Z,21.43
2018-03-25T22:54:18.163Z,21.80
2018-03-25T22:56:46.304Z,21.53
2018-03-25T22:59:14.418Z,23.00
2018-03-25T23:01:42.583Z,21.63
2018-03-25T23:04:10.687Z,22.67
2018-03-25T23:06:38.787Z,20.03
2018-03-25T23:09:06.935Z,20.03
2018-03-25T23:11:35.040Z,21.17
2018-03-25T23:14:03.261Z,19.60
2018-03-25T23:16:32.140Z,20.60
2018-03-25T23:19:00.275Z,20.10
2018-03-25T23:21:28.379Z,21.03
2018-03-25T23:23:56.536Z,21.00
2018-03-25T23:26:24.652Z,20.63
2018-03-25T23:28:53.632Z,19.77
2018-03-25T23:31:21.736Z,19.80
2018-03-25T23:33:49.879Z,20.10
2018-03-25T23:36:18.013Z,19.00
2018-03-25T23:38:46.149Z,20.33
2018-03-25T23:41:14.259Z,19.00
2018-03-25T23:43:42.392Z,18.70
2018-03-25T23:46:10.524Z,20.60
2018-03-25T23:48:38.651Z,19.60
2018-03-25T23:51:06.773Z,19.67
2018-03-25T23:53:34.898Z,17.67
2018-03-25T23:56:03.109Z,18.53
2018-03-25T23:58:31.252Z,17.57
